createdAt,value
2019-05-17T00:02:26.560Z,13.80
2019-05-17T00:05:31.011Z,13.80
2019-05-17T00:08:38.076Z,13.80
2019-05-17T00:11:41.410Z,13.80
2019-05-17T00:14:47.281Z,13.80
2019-05-17T00:17:51.760Z,13.80
2019-05-17T00:20:56.956Z,13.70
2019-05-17T00:24:01.523Z,13.70
2019-05-17T00:27:06.705Z,13.70
2019-05-17T00:30:11.520Z,13.70
2019-05-17T00:33:17.011Z,13.70
2019-05-17T00:36:21.502Z,13.70
2019-05-17T00:39:27.189Z,13.70
2019-05-17T00:42:31.748Z,13.70
2019-05-17T00:45:37.633Z,13.70
2019-05-17T00:48:42.289Z,13.60
2019-05-17T00:51:47.445Z,13.60
2019-05-17T00:54:51.903Z,13.60
2019-05-17T00:57:56.600Z,13.60
2019-05-17T01:01:00.933Z,13.60
2019-05-17T01:04:06.813Z,13.60
2019-05-17T01:07:11.289Z,13.60
2019-05-17T01:10:16.626Z,13.60
2019-05-17T01:13:21.128Z,13.60
2019-05-17T01:16:27.238Z,13.60
2019-05-17T01:19:31.637Z,13.60
2019-05-17T01:22:36.709Z,13.60
2019-05-17T01:25:41.207Z,13.60
2019-05-17T01:28:46.737Z,13.60
2019-05-17T01:31:51.154Z,13.60
2019-05-17T01:34:56.448Z,13.60
2019-05-17T01:38:00.906Z,13.60
2019-05-17T01:41:07.179Z,13.60
2019-05-17T01:44:11.497Z,13.60
2019-05-17T01:47:16.625Z,13.60
2019-05-17T01:50:21.080Z,13.60
2019-05-17T01:53:27.064Z,13.60
2019-05-17T01:56:31.587Z,13.60
2019-05-17T01:59:37.319Z,13.50
2019-05-17T02:02:43.540Z,13.50
2019-05-17T02:05:47.850Z,13.50
2019-05-17T02:08:52.353Z,13.50
2019-05-17T02:11:57.173Z,13.50
2019-05-17T02:15:01.696Z,13.50
2019-05-17T02:18:07.137Z,13.40
2019-05-17T02:21:11.619Z,13.50
2019-05-17T02:24:16.938Z,13.50
2019-05-17T02:27:24.284Z,13.50
2019-05-17T02:30:28.000Z,13.40
2019-05-17T02:33:33.380Z,13.40
2019-05-17T02:36:37.785Z,13.40
2019-05-17T02:39:53.816Z,13.40
2019-05-17T02:42:48.210Z,13.40
2019-05-17T02:45:52.955Z,13.40
2019-05-17T02:48:57.379Z,13.40
2019-05-17T02:52:03.324Z,13.40
2019-05-17T02:55:08.432Z,13.40
2019-05-17T02:58:13.003Z,13.40
2019-05-17T03:01:17.270Z,13.40
2019-05-17T03:04:23.600Z,13.40
2019-05-17T03:07:27.583Z,13.40
2019-05-17T03:10:33.486Z,13.40
2019-05-17T03:13:37.905Z,13.40
2019-05-17T03:16:43.021Z,13.30
2019-05-17T03:19:47.759Z,13.30
2019-05-17T03:22:52.640Z,13.40
2019-05-17T03:25:57.277Z,13.40
2019-05-17T03:29:03.259Z,13.40
2019-05-17T03:32:09.579Z,13.30
2019-05-17T03:35:16.788Z,13.30
2019-05-17T03:38:22.749Z,13.30
2019-05-17T03:41:29.209Z,13.30
2019-05-17T03:44:33.223Z,13.30
2019-05-17T03:47:37.808Z,13.30
2019-05-17T03:50:43.539Z,13.30
2019-05-17T03:53:48.336Z,13.40
2019-05-17T03:56:53.210Z,13.30
2019-05-17T03:59:57.807Z,13.30
2019-05-17T04:03:02.943Z,13.30
2019-05-17T04:06:07.646Z,13.30
2019-05-17T04:09:13.735Z,13.30
2019-05-17T04:12:17.977Z,13.30
2019-05-17T04:15:24.086Z,13.30
2019-05-17T04:18:28.469Z,13.30
2019-05-17T04:21:34.198Z,13.30
2019-05-17T04:24:38.847Z,13.30
2019-05-17T04:27:44.091Z,13.30
2019-05-17T04:30:48.517Z,13.30
2019-05-17T04:33:53.648Z,13.30
2019-05-17T04:36:58.170Z,13.30
2019-05-17T04:40:03.495Z,13.30
2019-05-17T04:43:08.231Z,13.30
2019-05-17T04:46:14.067Z,13.30
2019-05-17T04:49:18.446Z,13.30
2019-05-17T04:52:23.042Z,13.30
2019-05-17T04:55:27.339Z,13.30
2019-05-17T04:58:33.538Z,13.30
2019-05-17T05:01:37.835Z,13.40
2019-05-17T05:04:43.470Z,13.40
2019-05-17T05:07:49.105Z,13.40
2019-05-17T05:10:53.810Z,13.40
2019-05-17T05:13:58.273Z,13.40
2019-05-17T05:17:02.804Z,13.40
2019-05-17T05:20:08.005Z,13.40
2019-05-17T05:23:13.183Z,13.40
2019-05-17T05:26:17.728Z,13.50
2019-05-17T05:29:22.044Z,13.50
2019-05-17T05:32:26.414Z,13.50
2019-05-17T05:35:31.821Z,13.60
2019-05-17T05:38:36.311Z,13.60
2019-05-17T05:41:42.825Z,13.70
2019-05-17T05:44:47.485Z,13.70
2019-05-17T05:47:52.173Z,13.70
2019-05-17T05:50:56.555Z,13.60
2019-05-17T05:54:01.584Z,13.60
2019-05-17T05:57:06.209Z,13.70
2019-05-17T06:00:12.818Z,13.70
2019-05-17T06:03:17.326Z,13.80
2019-05-17T06:06:21.743Z,13.80
2019-05-17T06:09:26.123Z,13.90
2019-05-17T06:12:32.236Z,13.90
2019-05-17T06:15:36.836Z,14.00
2019-05-17T06:18:42.512Z,14.00
2019-05-17T06:21:47.116Z,14.10
2019-05-17T06:24:52.130Z,14.10
2019-05-17T06:27:56.505Z,14.20
2019-05-17T06:31:02.944Z,14.20
2019-05-17T06:34:06.964Z,14.30
2019-05-17T06:37:13.306Z,14.30
2019-05-17T06:40:17.580Z,14.40
2019-05-17T06:43:22.068Z,14.40
2019-05-17T06:46:26.484Z,14.50
2019-05-17T06:49:31.830Z,14.50
2019-05-17T06:52:36.682Z,14.60
2019-05-17T06:55:42.397Z,14.70
2019-05-17T06:58:47.171Z,14.80
2019-05-17T07:01:51.915Z,14.90
2019-05-17T07:04:57.872Z,15.00
2019-05-17T07:08:02.239Z,15.00
2019-05-17T07:11:06.709Z,15.10
2019-05-17T07:14:11.148Z,15.20
2019-05-17T07:17:15.525Z,15.30
2019-05-17T07:20:21.044Z,15.40
2019-05-17T07:23:25.398Z,15.50
2019-05-17T07:26:30.335Z,15.60
2019-05-17T07:29:34.780Z,15.70
2019-05-17T07:32:40.521Z,15.70
2019-05-17T07:35:50.204Z,15.80
2019-05-17T07:38:54.769Z,15.90
2019-05-17T07:42:05.607Z,15.90
2019-05-17T07:45:10.463Z,16.00
2019-05-17T07:48:14.972Z,16.00
2019-05-17T07:51:19.645Z,16.10
2019-05-17T07:54:24.112Z,16.20
2019-05-17T07:57:29.982Z,16.20
2019-05-17T08:00:34.445Z,16.20
2019-05-17T08:03:40.551Z,16.30
2019-05-17T08:06:44.979Z,16.40
2019-05-17T08:09:50.683Z,16.40
2019-05-17T08:12:55.155Z,16.40
2019-05-17T08:15:59.641Z,16.40
2019-05-17T08:19:04.046Z,16.50
2019-05-17T08:22:09.751Z,16.70
2019-05-17T08:25:14.839Z,16.80
2019-05-17T08:28:21.403Z,17.00
2019-05-17T08:31:25.305Z,17.20
2019-05-17T08:34:29.811Z,17.30
2019-05-17T08:37:34.241Z,17.40
2019-05-17T08:40:40.421Z,17.50
2019-05-17T08:43:46.868Z,17.50
2019-05-17T08:46:50.929Z,17.50
2019-05-17T08:49:55.413Z,17.50
2019-05-17T08:53:00.032Z,17.50
2019-05-17T08:56:04.543Z,17.70
2019-05-17T08:59:09.623Z,17.80
2019-05-17T09:02:14.090Z,17.90
2019-05-17T09:05:21.221Z,17.90
2019-05-17T09:08:24.773Z,17.90
2019-05-17T09:11:30.285Z,17.90
2019-05-17T09:14:37.156Z,17.80
2019-05-17T09:17:41.644Z,17.80
2019-05-17T09:20:46.255Z,17.80
2019-05-17T09:23:50.661Z,17.90
2019-05-17T09:26:59.854Z,18.00
2019-05-17T09:30:04.692Z,18.20
2019-05-17T09:33:11.388Z,18.40
2019-05-17T09:36:15.279Z,18.60
2019-05-17T09:39:20.087Z,18.70
2019-05-17T09:42:24.672Z,18.90
2019-05-17T09:45:30.671Z,19.20
2019-05-17T09:48:35.267Z,19.40
2019-05-17T09:51:39.735Z,19.60
2019-05-17T09:54:45.428Z,19.70
2019-05-17T09:57:50.186Z,19.90
2019-05-17T10:00:56.532Z,20.00
2019-05-17T10:04:00.922Z,20.10
2019-05-17T10:07:05.859Z,20.30
2019-05-17T10:10:11.859Z,20.40
2019-05-17T10:13:16.411Z,20.40
2019-05-17T10:16:21.085Z,20.50
2019-05-17T10:19:25.714Z,20.70
2019-05-17T10:22:30.584Z,20.80
2019-05-17T10:25:36.128Z,20.90
2019-05-17T10:28:41.283Z,20.90
2019-05-17T10:31:46.133Z,21.00
2019-05-17T10:34:50.724Z,21.10
2019-05-17T10:37:59.723Z,21.30
2019-05-17T10:41:04.938Z,21.40
2019-05-17T10:44:09.738Z,21.60
2019-05-17T10:47:14.452Z,21.80
2019-05-17T10:50:20.591Z,22.00
2019-05-17T10:53:25.551Z,22.10
2019-05-17T10:56:30.124Z,22.30
2019-05-17T10:59:36.447Z,22.40
2019-05-17T11:02:41.218Z,22.40
2019-05-17T11:05:45.869Z,22.50
2019-05-17T11:08:50.700Z,22.70
2019-05-17T11:11:55.376Z,22.80
2019-05-17T11:15:10.967Z,22.90
2019-05-17T11:18:07.349Z,23.00
2019-05-17T11:21:12.114Z,23.10
2019-05-17T11:24:20.054Z,23.10
2019-05-17T11:27:24.897Z,23.20
2019-05-17T11:30:29.860Z,23.20
2019-05-17T11:33:34.627Z,23.30
2019-05-17T11:36:40.141Z,23.30
2019-05-17T11:39:44.776Z,23.30
2019-05-17T11:42:49.499Z,23.20
2019-05-17T11:45:54.084Z,23.10
2019-05-17T11:48:58.583Z,23.10
2019-05-17T11:52:03.173Z,23.20
2019-05-17T11:55:08.121Z,23.20
2019-05-17T11:58:12.706Z,23.20
2019-05-17T12:01:17.192Z,23.10
2019-05-17T12:04:21.718Z,23.00
2019-05-17T12:07:26.170Z,22.90
2019-05-17T12:10:30.608Z,22.80
2019-05-17T12:13:35.072Z,22.70
2019-05-17T12:16:40.194Z,22.40
2019-05-17T12:19:44.901Z,22.20
2019-05-17T12:22:49.619Z,22.10
2019-05-17T12:25:54.221Z,22.00
2019-05-17T12:28:58.812Z,21.80
2019-05-17T12:32:04.335Z,21.70
2019-05-17T12:35:09.264Z,21.50
2019-05-17T12:38:13.980Z,21.30
2019-05-17T12:41:18.689Z,21.20
2019-05-17T12:44:23.358Z,21.00
2019-05-17T12:47:28.209Z,20.90
2019-05-17T12:50:32.782Z,20.90
2019-05-17T12:53:38.637Z,20.80
2019-05-17T12:56:43.323Z,20.70
2019-05-17T12:59:47.970Z,20.60
2019-05-17T13:02:52.715Z,20.50
2019-05-17T13:05:57.650Z,20.40
2019-05-17T13:09:02.275Z,20.20
2019-05-17T13:12:07.009Z,20.10
2019-05-17T13:15:12.045Z,19.90
2019-05-17T13:18:16.722Z,19.80
2019-05-17T13:21:21.635Z,19.80
2019-05-17T13:24:26.084Z,19.90
2019-05-17T13:27:30.606Z,19.90
2019-05-17T13:30:35.233Z,19.90
2019-05-17T13:33:40.987Z,19.90
2019-05-17T13:36:45.780Z,19.90
2019-05-17T13:39:50.476Z,20.00
2019-05-17T13:43:04.384Z,20.00
2019-05-17T13:46:08.966Z,20.00
2019-05-17T13:49:13.423Z,20.00
2019-05-17T13:52:18.084Z,20.10
2019-05-17T13:55:22.584Z,20.10
2019-05-17T13:58:26.957Z,20.10
2019-05-17T14:01:31.584Z,20.30
2019-05-17T14:04:35.960Z,20.40
2019-05-17T14:07:41.931Z,20.50
2019-05-17T14:10:47.221Z,20.60
2019-05-17T14:13:51.666Z,20.70
2019-05-17T14:16:57.471Z,20.80
2019-05-17T14:20:01.961Z,20.90
2019-05-17T14:23:06.384Z,21.00
2019-05-17T14:26:10.856Z,21.10
2019-05-17T14:29:15.279Z,21.10
2019-05-17T14:32:19.720Z,21.10
2019-05-17T14:35:24.164Z,21.20
2019-05-17T14:38:28.618Z,21.20
2019-05-17T14:41:33.051Z,21.20
2019-05-17T14:44:37.899Z,21.10
2019-05-17T14:47:42.369Z,21.10
2019-05-17T14:50:47.207Z,21.00
2019-05-17T14:53:51.722Z,21.00
2019-05-17T14:56:56.214Z,20.90
2019-05-17T15:00:00.606Z,20.90
2019-05-17T15:03:07.516Z,20.90
2019-05-17T15:06:11.597Z,20.80
2019-05-17T15:09:16.092Z,20.80
2019-05-17T15:12:28.241Z,20.70
2019-05-17T15:15:27.153Z,20.60
2019-05-17T15:18:31.765Z,20.60
2019-05-17T15:21:36.263Z,20.40
2019-05-17T15:24:40.694Z,20.30
2019-05-17T15:27:45.131Z,20.30
2019-05-17T15:30:49.538Z,20.20
2019-05-17T15:33:53.887Z,20.00
2019-05-17T15:36:58.592Z,19.90
2019-05-17T15:40:03.342Z,19.80
2019-05-17T15:43:07.841Z,19.70
2019-05-17T15:46:12.509Z,19.70
2019-05-17T15:49:17.306Z,19.60
2019-05-17T15:52:21.854Z,19.60
2019-05-17T15:55:26.307Z,19.50
2019-05-17T15:58:30.832Z,19.40
2019-05-17T16:01:35.314Z,19.30
2019-05-17T16:04:39.873Z,19.20
2019-05-17T16:07:44.971Z,19.20
2019-05-17T16:10:50.710Z,19.00
2019-05-17T16:13:55.180Z,18.90
2019-05-17T16:16:59.639Z,18.70
2019-05-17T16:20:04.594Z,18.60
2019-05-17T16:23:09.119Z,18.40
2019-05-17T16:26:13.545Z,18.30
2019-05-17T16:29:18.459Z,18.20
2019-05-17T16:32:22.886Z,18.10
2019-05-17T16:35:27.721Z,18.00
2019-05-17T16:38:32.241Z,17.70
2019-05-17T16:41:36.823Z,17.30
2019-05-17T16:44:41.231Z,17.20
2019-05-17T16:47:45.730Z,17.30
2019-05-17T16:50:50.440Z,17.40
2019-05-17T16:53:56.047Z,17.50
2019-05-17T16:57:00.553Z,17.50
2019-05-17T17:00:06.035Z,17.50
2019-05-17T17:03:10.490Z,17.60
2019-05-17T17:06:15.299Z,17.50
2019-05-17T17:09:19.718Z,17.40
2019-05-17T17:12:24.224Z,17.30
2019-05-17T17:15:28.735Z,17.10
2019-05-17T17:18:33.384Z,17.00
2019-05-17T17:21:40.042Z,16.90
2019-05-17T17:24:44.811Z,16.90
2019-05-17T17:27:50.818Z,16.80
2019-05-17T17:30:55.352Z,16.70
2019-05-17T17:33:59.779Z,16.70
2019-05-17T17:37:04.283Z,16.70
2019-05-17T17:40:09.187Z,16.60
2019-05-17T17:43:15.603Z,16.60
2019-05-17T17:46:20.271Z,16.50
2019-05-17T17:49:25.028Z,16.60
2019-05-17T17:52:29.641Z,16.50
2019-05-17T17:55:38.474Z,16.40
2019-05-17T17:58:42.950Z,16.40
2019-05-17T18:01:47.552Z,16.40
2019-05-17T18:04:52.604Z,16.30
2019-05-17T18:08:00.602Z,16.20
2019-05-17T18:11:05.561Z,16.10
2019-05-17T18:14:13.597Z,16.10
2019-05-17T18:17:17.507Z,16.00
2019-05-17T18:20:23.266Z,16.00
2019-05-17T18:23:27.932Z,15.90
2019-05-17T18:26:32.660Z,15.90
2019-05-17T18:29:37.373Z,15.80
2019-05-17T18:32:41.971Z,15.80
2019-05-17T18:35:46.521Z,15.70
2019-05-17T18:38:53.675Z,15.60
2019-05-17T18:41:59.887Z,15.50
2019-05-17T18:45:04.650Z,15.50
2019-05-17T18:48:09.094Z,15.40
2019-05-17T18:51:14.529Z,15.40
2019-05-17T18:54:19.736Z,15.20
2019-05-17T18:57:27.024Z,15.10
2019-05-17T19:00:31.609Z,15.10
2019-05-17T19:03:36.153Z,14.90
2019-05-17T19:06:40.666Z,14.90
2019-05-17T19:09:45.336Z,14.90
2019-05-17T19:12:50.963Z,14.70
2019-05-17T19:15:56.267Z,14.60
2019-05-17T19:19:01.673Z,14.60
2019-05-17T19:22:06.578Z,14.60
2019-05-17T19:25:12.092Z,14.60
2019-05-17T19:28:17.610Z,14.60
2019-05-17T19:31:24.373Z,14.60
2019-05-17T19:34:30.205Z,14.50
2019-05-17T19:37:35.782Z,14.40
2019-05-17T19:40:41.620Z,14.40
2019-05-17T19:43:47.108Z,14.40
2019-05-17T19:46:52.712Z,14.30
2019-05-17T19:49:57.551Z,14.30
2019-05-17T19:53:05.015Z,14.30
2019-05-17T19:56:09.988Z,14.20
2019-05-17T19:59:14.688Z,14.20
2019-05-17T20:02:19.888Z,14.10
2019-05-17T20:05:25.445Z,14.10
2019-05-17T20:08:31.605Z,14.10
2019-05-17T20:11:39.142Z,14.00
2019-05-17T20:14:44.396Z,14.00
2019-05-17T20:17:49.587Z,13.90
2019-05-17T20:20:54.345Z,13.80
2019-05-17T20:23:58.978Z,13.80
2019-05-17T20:27:03.829Z,13.70
2019-05-17T20:30:10.498Z,13.70
2019-05-17T20:33:15.291Z,13.70
2019-05-17T20:36:20.031Z,13.70
2019-05-17T20:39:24.656Z,13.60
2019-05-17T20:42:29.371Z,13.60
2019-05-17T20:45:34.439Z,13.50
2019-05-17T20:48:39.194Z,13.50
2019-05-17T20:51:43.906Z,13.40
2019-05-17T20:54:48.700Z,13.40
2019-05-17T20:57:53.343Z,13.40
2019-05-17T21:00:57.938Z,13.40
2019-05-17T21:04:05.780Z,13.30
2019-05-17T21:07:10.496Z,13.30
2019-05-17T21:10:17.417Z,13.20
2019-05-17T21:13:21.901Z,13.20
2019-05-17T21:16:26.328Z,13.10
2019-05-17T21:19:31.137Z,13.10
2019-05-17T21:22:35.834Z,13.10
2019-05-17T21:25:41.073Z,13.00
2019-05-17T21:28:47.280Z,13.00
2019-05-17T21:31:51.580Z,13.00
2019-05-17T21:34:56.115Z,13.00
2019-05-17T21:38:01.101Z,12.90
2019-05-17T21:41:06.021Z,12.90
2019-05-17T21:44:10.596Z,12.80
2019-05-17T21:47:15.066Z,12.80
2019-05-17T21:50:19.523Z,12.80
2019-05-17T21:53:24.447Z,12.70
2019-05-17T21:56:28.995Z,12.70
2019-05-17T21:59:34.059Z,12.60
2019-05-17T22:02:38.775Z,12.60
2019-05-17T22:05:43.895Z,12.60
2019-05-17T22:08:48.376Z,12.50
2019-05-17T22:11:57.246Z,12.50
2019-05-17T22:15:03.925Z,12.50
2019-05-17T22:18:08.628Z,12.50
2019-05-17T22:21:13.231Z,12.40
2019-05-17T22:24:17.887Z,12.40
2019-05-17T22:27:22.305Z,12.40
2019-05-17T22:30:26.683Z,12.30
2019-05-17T22:33:31.122Z,12.40
2019-05-17T22:36:37.180Z,12.30
2019-05-17T22:39:41.831Z,12.30
2019-05-17T22:42:46.292Z,12.20
2019-05-17T22:45:50.980Z,12.20
2019-05-17T22:48:55.788Z,12.20
2019-05-17T22:52:00.369Z,12.20
2019-05-17T22:55:05.391Z,12.20
2019-05-17T22:58:10.104Z,12.10
2019-05-17T23:01:14.532Z,12.10
2019-05-17T23:04:19.020Z,12.10
2019-05-17T23:07:24.411Z,12.10
2019-05-17T23:10:28.848Z,12.00
2019-05-17T23:13:33.774Z,12.00
2019-05-17T23:16:51.063Z,12.00
2019-05-17T23:19:46.154Z,12.00
2019-05-17T23:22:51.351Z,11.90
2019-05-17T23:25:55.792Z,11.90
2019-05-17T23:29:01.741Z,11.90
2019-05-17T23:32:06.139Z,11.90
2019-05-17T23:35:11.173Z,11.90
2019-05-17T23:38:16.678Z,11.80
2019-05-17T23:41:21.121Z,11.80
2019-05-17T23:44:25.996Z,11.80
2019-05-17T23:47:31.580Z,11.80
2019-05-17T23:50:36.136Z,11.80
2019-05-17T23:53:40.837Z,11.80
2019-05-17T23:56:46.028Z,11.70
2019-05-17T23:59:51.651Z,11.70
